TimeEDT,TemperatureF,Dew PointF,Humidity,Sea Level PressureIn,VisibilityMPH,Wind Direction,Wind SpeedMPH,Gust SpeedMPH,PrecipitationIn,Events,Conditions,WindDirDegrees,DateUTC
12:53 AM,70.0,61.0,73,29.94,10.0,Calm,Calm,-,N/A,,Mostly Cloudy,0,2013-07-11 04:53:00
1:53 AM,68.0,55.9,65,29.95,10.0,North,6.9,-,N/A,,Mostly Cloudy,360,2013-07-11 05:53:00
2:53 AM,66.9,55.0,66,29.95,10.0,NNW,4.6,-,N/A,,Mostly Cloudy,340,2013-07-11 06:53:00
3:53 AM,66.0,55.0,68,29.97,10.0,NNW,4.6,-,N/A,,Mostly Cloudy,330,2013-07-11 07:53:00
4:53 AM,64.9,55.0,70,29.99,10.0,NNW,4.6,-,N/A,,Mostly Cloudy,340,2013-07-11 08:53:00
5:53 AM,64.0,55.0,73,30.00,10.0,Calm,Calm,-,N/A,,Mostly Cloudy,0,2013-07-11 09:53:00
6:53 AM,64.9,53.1,65,30.01,10.0,NNW,4.6,-,N/A,,Clear,330,2013-07-11 10:53:00
7:53 AM,66.9,53.1,61,30.03,10.0,North,5.8,-,N/A,,Clear,360,2013-07-11 11:53:00
8:53 AM,70.0,52.0,53,30.04,10.0,North,10.4,-,N/A,,Clear,360,2013-07-11 12:53:00
9:53 AM,72.0,52.0,49,30.05,10.0,North,11.5,-,N/A,,Clear,10,2013-07-11 13:53:00
10:53 AM,73.9,53.1,48,30.05,10.0,North,10.4,-,N/A,,Partly Cloudy,10,2013-07-11 14:53:00
11:53 AM,75.9,53.1,45,30.05,10.0,North,13.8,18.4,N/A,,Mostly Cloudy,10,2013-07-11 15:53:00
12:53 PM,75.0,53.1,46,30.05,10.0,Variable,4.6,-,N/A,,Mostly Cloudy,0,2013-07-11 16:53:00
1:53 PM,75.0,52.0,44,30.04,10.0,NNW,8.1,-,N/A,,Mostly Cloudy,330,2013-07-11 17:53:00
2:53 PM,78.1,54.0,43,30.04,10.0,North,10.4,16.1,N/A,,Mostly Cloudy,10,2013-07-11 18:53:00
3:53 PM,78.1,53.1,42,30.03,10.0,North,10.4,-,N/A,,Scattered Clouds,350,2013-07-11 19:53:00
4:53 PM,78.1,52.0,40,30.03,10.0,North,10.4,-,N/A,,Scattered Clouds,10,2013-07-11 20:53:00
5:53 PM,78.1,52.0,40,30.03,10.0,NE,9.2,-,N/A,,Mostly Cloudy,40,2013-07-11 21:53:00
6:16 PM,73.4,59.0,61,30.04,10.0,East,12.7,-,N/A,,Scattered Clouds,80,2013-07-11 22:16:00
6:53 PM,73.0,57.9,59,30.04,10.0,East,13.8,-,N/A,,Scattered Clouds,80,2013-07-11 22:53:00
7:53 PM,71.1,57.0,61,30.04,10.0,ENE,10.4,-,N/A,,Clear,70,2013-07-11 23:53:00
8:53 PM,69.1,57.0,65,30.04,10.0,ENE,5.8,-,N/A,,Clear,70,2013-07-12 00:53:00
9:53 PM,66.9,55.9,68,30.05,10.0,NE,6.9,-,N/A,,Clear,50,2013-07-12 01:53:00
10:53 PM,66.0,55.9,70,30.07,10.0,NE,5.8,-,N/A,,Clear,40,2013-07-12 02:53:00
11:53 PM,64.0,55.0,73,30.08,10.0,NNE,6.9,-,N/A,,Clear,30,2013-07-12 03:53:00